createdAt,value
2022-08-05T00:04:48.002Z,14.2
2022-08-05T00:09:48.114Z,14.2
2022-08-05T00:14:48.443Z,14.2
2022-08-05T00:20:02.286Z,14.2
2022-08-05T00:24:48.116Z,14.2
2022-08-05T00:29:48.107Z,14.2
2022-08-05T00:34:57.231Z,14.4
2022-08-05T00:39:57.636Z,14.2
2022-08-05T00:49:51.571Z,14.2
2022-08-05T00:54:48.236Z,14.1
2022-08-05T00:59:48.135Z,14.1
2022-08-05T01:04:50.290Z,14.2
2022-08-05T01:09:55.636Z,13.9
2022-08-05T01:14:48.255Z,13.8
2022-08-05T01:19:57.139Z,13.7
2022-08-05T01:24:48.058Z,13.6
2022-08-05T01:29:48.063Z,13.3
2022-08-05T01:34:47.927Z,13.3
2022-08-05T01:39:48.157Z,13.1
2022-08-05T01:44:54.019Z,13.1
2022-08-05T01:50:00.597Z,13.4
2022-08-05T01:54:47.914Z,13.4
2022-08-05T01:59:48.361Z,13.3
2022-08-05T02:04:49.484Z,13.4
2022-08-05T02:09:47.909Z,13.6
2022-08-05T02:14:47.991Z,13.6
2022-08-05T02:19:47.895Z,13.4
2022-08-05T02:24:47.892Z,13.4
2022-08-05T02:29:58.282Z,13.4
2022-08-05T02:34:54.803Z,13.2
2022-08-05T02:39:47.921Z,13.2
2022-08-05T02:44:47.878Z,13.2
2022-08-05T02:49:47.872Z,13.2
2022-08-05T02:54:50.840Z,13.2
2022-08-05T02:59:50.515Z,13.2
2022-08-05T03:04:47.942Z,13.3
2022-08-05T03:09:51.278Z,13.2
2022-08-05T03:14:48.140Z,13.3
2022-08-05T03:19:47.947Z,13.5
2022-08-05T03:24:50.844Z,13.4
2022-08-05T03:30:07.847Z,13.5
2022-08-05T03:34:50.404Z,13.4
2022-08-05T03:39:58.452Z,13.5
2022-08-05T03:44:47.986Z,13.5
2022-08-05T03:49:50.987Z,13.6
2022-08-05T03:54:59.906Z,13.4
2022-08-05T03:59:54.574Z,13.4
2022-08-05T04:04:47.816Z,13.3
2022-08-05T04:09:53.353Z,13.1
2022-08-05T04:14:47.925Z,13
2022-08-05T04:19:54.211Z,12.9
2022-08-05T04:24:52.342Z,13
2022-08-05T04:29:48.388Z,13
2022-08-05T04:34:47.943Z,12.9
2022-08-05T04:39:52.629Z,12.9
2022-08-05T04:44:47.797Z,13
2022-08-05T04:50:01.197Z,13.1
2022-08-05T04:54:49.300Z,13.1
2022-08-05T04:59:48.244Z,13
2022-08-05T05:04:49.855Z,12.9
2022-08-05T05:09:47.769Z,12.9
2022-08-05T05:14:49.647Z,13
2022-08-05T05:19:47.900Z,12.9
2022-08-05T05:24:56.525Z,12.9
2022-08-05T05:30:03.212Z,13
2022-08-05T05:34:47.750Z,12.9
2022-08-05T05:39:47.893Z,13
2022-08-05T05:44:47.843Z,13.3
2022-08-05T05:49:48.028Z,13.4
2022-08-05T05:54:50.023Z,13.2
2022-08-05T05:59:47.744Z,13.3
2022-08-05T06:04:49.120Z,13.3
2022-08-05T06:09:52.788Z,13.2
2022-08-05T06:14:47.764Z,13.4
2022-08-05T06:19:56.509Z,13.4
2022-08-05T06:24:48.392Z,13.5
2022-08-05T06:30:02.625Z,13.4
2022-08-05T06:34:47.753Z,13.5
2022-08-05T06:39:47.905Z,13.3
2022-08-05T06:44:49.222Z,13.6
2022-08-05T06:50:01.028Z,14
2022-08-05T06:54:48.758Z,14.3
2022-08-05T06:59:48.459Z,14
2022-08-05T07:04:47.683Z,13.7
2022-08-05T07:09:48.478Z,14
2022-08-05T07:14:47.821Z,13.6
2022-08-05T07:20:16.633Z,13.6
2022-08-05T07:24:52.610Z,13.8
2022-08-05T07:30:21.966Z,13.7
2022-08-05T07:34:47.954Z,13.9
2022-08-05T07:40:04.937Z,13.9
2022-08-05T07:44:47.651Z,13.8
2022-08-05T07:49:54.408Z,13.8
2022-08-05T07:54:49.168Z,13.9
2022-08-05T07:59:48.867Z,13.8
2022-08-05T08:04:47.945Z,13.9
2022-08-05T08:09:48.051Z,13.6
2022-08-05T08:14:47.625Z,13.9
2022-08-05T08:20:23.332Z,13.9
2022-08-05T08:24:51.199Z,13.7
2022-08-05T08:30:04.842Z,13.9
2022-08-05T08:34:47.744Z,14.2
2022-08-05T08:39:49.359Z,14.3
2022-08-05T08:45:21.686Z,14.2
2022-08-05T08:50:07.939Z,14.3
2022-08-05T08:54:47.643Z,14.5
2022-08-05T08:59:48.887Z,14.6
2022-08-05T09:04:58.675Z,15
2022-08-05T09:09:47.762Z,14.2
2022-08-05T09:14:54.908Z,13.5
2022-08-05T09:19:55.357Z,13.6
2022-08-05T09:24:47.705Z,13.4
2022-08-05T09:29:48.162Z,13.8
2022-08-05T09:34:47.870Z,14.1
2022-08-05T09:39:52.146Z,13.5
2022-08-05T09:44:49.377Z,13.4
2022-08-05T09:49:57.106Z,14
2022-08-05T09:54:47.951Z,14
2022-08-05T09:59:47.722Z,13.8
2022-08-05T10:04:47.685Z,14.1
2022-08-05T10:09:47.659Z,13.9
2022-08-05T10:14:47.962Z,13.7
2022-08-05T10:20:03.335Z,13.6
2022-08-05T10:24:47.527Z,13.9
2022-08-05T10:30:07.426Z,13.5
2022-08-05T10:34:47.645Z,13.5
2022-08-05T10:39:59.594Z,14.3
2022-08-05T10:44:47.851Z,13.8
2022-08-05T10:49:48.934Z,14
2022-08-05T10:54:56.616Z,14.3
2022-08-05T11:00:01.471Z,14.1
2022-08-05T11:04:47.622Z,14
2022-08-05T11:09:47.604Z,13.8
2022-08-05T11:15:01.645Z,14.3
2022-08-05T11:20:09.681Z,14.5
2022-08-05T11:24:50.527Z,14.6
2022-08-05T11:29:47.486Z,14.6
2022-08-05T11:34:52.263Z,13.9
2022-08-05T11:39:48.023Z,14.6
2022-08-05T11:44:53.518Z,14.2
2022-08-05T11:49:49.624Z,14.5
2022-08-05T11:54:48.412Z,14.5
2022-08-05T11:59:49.604Z,14.6
2022-08-05T12:04:47.586Z,14.6
2022-08-05T12:09:52.597Z,14.3
2022-08-05T12:14:47.623Z,14.1
2022-08-05T12:20:17.446Z,13.7
2022-08-05T12:24:49.483Z,13.9
2022-08-05T12:29:53.324Z,13.5
2022-08-05T12:34:47.717Z,13.1
2022-08-05T12:39:48.479Z,13
2022-08-05T12:44:47.840Z,13
2022-08-05T12:50:02.570Z,13.2
2022-08-05T12:54:47.556Z,13.4
2022-08-05T13:00:09.111Z,12.8
2022-08-05T13:04:52.399Z,13.3
2022-08-05T13:09:50.608Z,13.5
2022-08-05T13:14:47.572Z,13
2022-08-05T13:19:52.587Z,13
2022-08-05T13:24:51.311Z,12.8
2022-08-05T13:29:59.743Z,13
2022-08-05T13:34:47.387Z,13.1
2022-08-05T13:40:13.334Z,12.9
2022-08-05T13:44:47.377Z,12.9
2022-08-05T13:49:47.502Z,12.4
2022-08-05T13:54:53.186Z,12.8
2022-08-05T13:59:57.073Z,12.5
2022-08-05T14:04:49.274Z,13
2022-08-05T14:09:47.366Z,13.2
2022-08-05T14:14:47.476Z,12.6
2022-08-05T14:19:54.728Z,12.7
2022-08-05T14:24:47.772Z,12.6
2022-08-05T14:29:51.317Z,13.4
2022-08-05T14:34:47.346Z,13.3
2022-08-05T14:39:49.852Z,13
2022-08-05T14:44:47.636Z,13.7
2022-08-05T14:49:56.688Z,13.3
2022-08-05T14:54:52.723Z,13.1
2022-08-05T14:59:47.769Z,13.5
2022-08-05T15:04:47.723Z,13.4
2022-08-05T15:09:52.809Z,13.4
2022-08-05T15:14:49.782Z,13.6
2022-08-05T15:19:48.799Z,13.5
2022-08-05T15:24:47.431Z,13.5
2022-08-05T15:29:47.299Z,13.3
2022-08-05T15:34:47.711Z,13.3
2022-08-05T15:40:42.100Z,13.5
2022-08-05T15:44:47.411Z,13.3
2022-08-05T15:49:55.422Z,13.4
2022-08-05T15:54:47.400Z,13.2
2022-08-05T15:59:47.663Z,13.3
2022-08-05T16:04:47.322Z,13.1
2022-08-05T16:09:47.268Z,12.8
2022-08-05T16:14:47.267Z,13.3
2022-08-05T16:20:03.824Z,13
2022-08-05T16:24:51.476Z,12.8
2022-08-05T16:29:50.105Z,13.2
2022-08-05T16:34:47.385Z,13.4
2022-08-05T16:40:04.162Z,13.3
2022-08-05T16:44:54.026Z,13
2022-08-05T16:49:47.536Z,13.1
2022-08-05T16:54:47.414Z,13.3
2022-08-05T16:59:49.647Z,13.1
2022-08-05T17:04:47.578Z,13.2
2022-08-05T17:09:57.995Z,13.3
2022-08-05T17:14:47.331Z,13.1
2022-08-05T17:19:47.217Z,13.2
2022-08-05T17:24:57.314Z,13.1
2022-08-05T17:29:50.148Z,14
2022-08-05T17:34:47.590Z,15.2
2022-08-05T17:39:47.345Z,13
2022-08-05T17:44:49.988Z,13.1
2022-08-05T17:49:51.923Z,14.3
2022-08-05T17:59:50.091Z,13.3
2022-08-05T18:04:51.079Z,13
2022-08-05T18:09:59.373Z,13.1
2022-08-05T18:14:47.511Z,13
2022-08-05T18:19:51.364Z,14
2022-08-05T18:24:47.167Z,14.2
2022-08-05T18:29:50.674Z,14.6
2022-08-05T18:34:47.553Z,14.6
2022-08-05T18:40:31.884Z,14.6
2022-08-05T18:44:49.508Z,14.8
2022-08-05T18:49:57.430Z,14.7
2022-08-05T18:54:47.297Z,14.6
2022-08-05T19:00:02.049Z,15
2022-08-05T19:05:01.815Z,15
2022-08-05T19:09:47.257Z,15
2022-08-05T19:15:00.115Z,14.8
2022-08-05T19:19:48.475Z,15
2022-08-05T19:24:54.786Z,14.9
2022-08-05T19:29:47.266Z,14.8
2022-08-05T19:34:54.442Z,15
2022-08-05T19:39:50.893Z,15
2022-08-05T19:44:47.181Z,14.9
2022-08-05T19:49:47.161Z,14.8
2022-08-05T19:54:47.229Z,14.9
2022-08-05T19:59:53.863Z,14.9
2022-08-05T20:04:48.317Z,14.9
2022-08-05T20:09:53.471Z,14.8
2022-08-05T20:14:47.248Z,14.8
2022-08-05T20:19:47.206Z,14.9
2022-08-05T20:24:47.160Z,14.9
2022-08-05T20:29:52.367Z,14.9
2022-08-05T20:34:47.067Z,14.9
2022-08-05T20:39:51.434Z,14.9
2022-08-05T20:44:47.060Z,14.8
2022-08-05T20:49:47.485Z,14.8
2022-08-05T20:54:55.502Z,14.8
2022-08-05T21:00:10.779Z,14.8
2022-08-05T21:04:47.316Z,14.8
2022-08-05T21:09:50.297Z,14.8
2022-08-05T21:14:47.166Z,14.8
2022-08-05T21:19:50.347Z,14.7
2022-08-05T21:24:49.110Z,14.8
2022-08-05T21:29:48.349Z,14.7
2022-08-05T21:34:56.226Z,14.7
2022-08-05T21:39:47.055Z,14.6
2022-08-05T21:44:47.155Z,14.8
2022-08-05T21:49:48.884Z,14.7
2022-08-05T21:54:47.382Z,14.7
2022-08-05T22:00:03.139Z,14.7
2022-08-05T22:04:47.084Z,14.8
2022-08-05T22:09:47.358Z,14.8
2022-08-05T22:14:47.112Z,14.8
2022-08-05T22:19:57.688Z,14.8
2022-08-05T22:24:51.648Z,14.8
2022-08-05T22:29:47.256Z,14.9
2022-08-05T22:34:47.093Z,15.1
2022-08-05T22:39:50.358Z,15.2
2022-08-05T22:44:47.115Z,15.2
2022-08-05T22:50:17.516Z,15.2
2022-08-05T22:54:48.756Z,15.2
2022-08-05T22:59:52.037Z,15.1
2022-08-05T23:04:51.476Z,15.1
2022-08-05T23:09:53.087Z,15.1
2022-08-05T23:14:47.076Z,15
2022-08-05T23:19:50.980Z,14.9
2022-08-05T23:24:48.434Z,14.9
2022-08-05T23:29:47.290Z,14.9
2022-08-05T23:34:46.933Z,14.8
2022-08-05T23:39:54.085Z,14.7
2022-08-05T23:44:46.923Z,14.8
2022-08-05T23:49:47.204Z,14.8
2022-08-05T23:54:47.091Z,14.7
